الصفحة الرئيسية
METAR-TAF:

METAR-TAF

مطار :

شلالات فيكتوريا, زيمبابوي

دائرة عرض: 18-06S, خط طول: 025-51E, ارتفاع: 1061 متر

مراقبة الطقس الحالي

تاريخ ووقت الإصدار 12ساعات و 32 دقيقة قبل الساعة 10:00UTC
ريح 11 عقدة من الشرق, الاتجاه يتراوح بين الشرق/الشمال الشرقي و الشرق/الجنوب الشرقي
درجة الحرارة 31°درجة مئوية
الرطوبة 46%
ضغط 1017 hPa
الرؤية 10 كم أو أكثر
غيوم قليلة على ارتفاع 4500 قدم

METAR: FVFA 131000Z 09011KT 060V120 9999 FEW045 31/18 Q1017 NOSIG

زمن: 00:32 (22:32 UTC)


TAF: مفقودة

أرصاد الطقس والتوقعات من أكثر من 4000 مطار (تقارير الطقس للمطار METAR والتنبؤ بالطقس بالمطارTAF).

المحطات المتاحة هي النقط الصفراء والحمراء على الخريطة.

حرك المؤشر فوق النقطة لمعرفة اسم المحطة.

ثم انقر لمعرفة أرصاد وتوقعات الطقس.

لتغيير الخارطة: اضغط على الأزرار الخضراء مع رمز الصليب الأسود للتكبير. على الزر الأخضر مع شرطة للتصغير، أو على الأسهم الخضراء للخرائط المجاورة.


METAR-TAF: